Startpagina
METAR-TAF:

METAR-TAF

Vliegvelden :

Hargeisa, Somalië

breedte: 09-30N, lengte: 044-05E, hoogte: 1326 m

Actueel weer

Dit bericht is 20 minuten geleden gemaakt, om 05:00 UTC
Wind 25 kt uit het zuidwesten
Temperatuur 21°C
Vochtigheid 73%
Druk 1020 hPa
Zicht 10 km of meer
geen wolken onder 1500 m en geen cumulonimbus

METAR: HCMH 260500Z 23025KT CAVOK 21/16 Q1020

Tijdstip: 08:20 (05:20 UTC)


TAF: ontbreekt

Waarnemingen en weersverwachtingen van meer dan 4000 vliegvelden (METAR en TAF).

De beschikbare stations zijn de gele en rode punten op de kaart.

Ga met uw muis naar het station om de naam te zien.

Klik dan om waarnemingen en weersverwachtingen te zien.

kaart wijzigen: klik op de groene knoppen met een zwart kruis om in te zoomen, op de groene knop met een streepje om uit te zoomen of op de groene pijlen voor aangrenzende kaarten.


METAR-TAF: